Time;durP1;ratioP1;P1;durP2;ratioP2;P2;SDS_P1;SDS_P2;PMS_P1;PMS_P2;Temp;Humidity;BMP_temperature;BMP_pressure;BME280_temperature;BME280_humidity;BME280_pressure;Samples;Min_cycle;Max_cycle;Signal;HPM_P1;HPM_P2
2021/11/01 00:01:45;;;;;;;22.23;20.97;;;13.40;85.60;;;;;;5129788;27;20528;-70
2021/11/01 00:04:12;;;;;;;22.67;21.07;;;13.50;85.90;;;;;;5128992;27;20594;-71
2021/11/01 00:06:39;;;;;;;21.50;20.20;;;13.50;85.60;;;;;;5130481;27;20477;-71
2021/11/01 00:09:06;;;;;;;22.47;21.10;;;13.50;85.50;;;;;;5129517;27;20570;-72
2021/11/01 00:11:33;;;;;;;21.07;19.80;;;13.50;85.30;;;;;;5126398;27;20476;-73
2021/11/01 00:14:00;;;;;;;21.87;20.67;;;13.70;85.10;;;;;;5129152;27;20817;-72
2021/11/01 00:16:27;;;;;;;21.53;20.13;;;13.60;85.00;;;;;;5130995;27;20992;-72
2021/11/01 00:18:55;;;;;;;22.13;20.50;;;13.70;85.00;;;;;;5129302;27;20996;-72
2021/11/01 00:21:24;;;;;;;21.90;20.70;;;13.70;84.80;;;;;;5129700;27;20447;-72
2021/11/01 00:23:51;;;;;;;21.17;19.97;;;13.60;85.20;;;;;;5128737;27;20479;-72
2021/11/01 00:26:18;;;;;;;21.30;20.00;;;13.70;85.30;;;;;;5129722;27;20449;-72
2021/11/01 00:28:45;;;;;;;20.70;19.50;;;13.60;85.50;;;;;;5128627;27;20455;-73
2021/11/01 00:31:12;;;;;;;20.70;19.50;;;13.60;85.70;;;;;;5128525;27;20570;-70
2021/11/01 00:33:39;;;;;;;20.33;19.10;;;13.60;85.70;;;;;;5127137;27;20658;-70
2021/11/01 00:36:09;;;;;;;19.60;18.50;;;13.60;85.90;;;;;;5128818;27;20961;-70
2021/11/01 00:38:36;;;;;;;18.93;17.93;;;13.80;86.00;;;;;;5130941;27;20460;-70
2021/11/01 00:41:03;;;;;;;18.57;17.67;;;14.00;85.90;;;;;;5125498;27;20813;-71
2021/11/01 00:43:30;;;;;;;18.10;17.20;;;14.20;86.00;;;;;;5128000;27;20478;-70
2021/11/01 00:45:57;;;;;;;18.27;17.27;;;14.50;85.90;;;;;;5129224;27;20474;-71
2021/11/01 00:48:24;;;;;;;17.80;16.80;;;14.70;85.80;;;;;;5129112;27;20479;-70
2021/11/01 00:50:51;;;;;;;17.67;16.70;;;14.90;85.30;;;;;;5129916;27;20833;-70
2021/11/01 00:53:20;;;;;;;17.63;16.70;;;15.10;84.60;;;;;;5125987;27;20467;-71
2021/11/01 00:55:51;;;;;;;17.73;16.83;;;15.30;84.50;;;;;;5127888;27;20802;-72
2021/11/01 00:58:21;;;;;;;17.50;16.70;;;15.40;84.10;;;;;;5129555;27;20500;-72
2021/11/01 01:00:48;;;;;;;17.37;16.57;;;15.50;83.70;;;;;;5127881;27;20459;-72
2021/11/01 01:03:15;;;;;;;18.10;17.10;;;15.80;83.30;;;;;;5128496;27;20475;-72
2021/11/01 01:05:43;;;;;;;17.90;17.00;;;15.80;83.10;;;;;;5130002;27;20462;-72
2021/11/01 01:08:12;;;;;;;17.80;16.90;;;15.90;82.60;;;;;;5124336;27;20528;-73
2021/11/01 01:10:40;;;;;;;18.20;17.30;;;16.00;82.60;;;;;;5122450;27;20821;-70
2021/11/01 01:13:08;;;;;;;17.93;17.03;;;16.20;82.50;;;;;;5126549;27;20558;-70
2021/11/01 01:15:40;;;;;;;17.80;16.90;;;16.20;82.50;;;;;;5129511;27;20455;-70
2021/11/01 01:18:12;;;;;;;18.00;17.20;;;16.30;82.40;;;;;;5128723;27;20477;-72
2021/11/01 01:20:39;;;;;;;18.20;17.30;;;16.40;82.00;;;;;;5128204;27;20994;-71
2021/11/01 01:23:06;;;;;;;18.37;17.47;;;16.50;81.90;;;;;;5128135;27;20475;-70
2021/11/01 01:25:44;;;;;;;18.20;17.30;;;16.50;82.00;;;;;;5126308;27;20967;-70
2021/11/01 01:28:14;;;;;;;18.43;17.53;;;16.60;81.80;;;;;;5109538;27;20455;-73
2021/11/01 01:30:42;;;;;;;17.93;17.13;;;16.60;81.60;;;;;;5129953;27;20668;-73
2021/11/01 01:33:10;;;;;;;18.77;17.87;;;16.70;81.50;;;;;;5125846;27;20468;-72
2021/11/01 01:35:39;;;;;;;18.70;17.70;;;16.70;81.50;;;;;;5128429;27;20968;-72
2021/11/01 01:38:07;;;;;;;19.63;18.33;;;16.60;81.70;;;;;;5129813;27;20479;-72
2021/11/01 01:40:34;;;;;;;18.77;17.87;;;16.60;82.00;;;;;;5132937;27;20452;-72
2021/11/01 01:43:01;;;;;;;18.63;17.73;;;16.70;81.80;;;;;;5123649;27;20482;-72
2021/11/01 01:45:30;;;;;;;18.83;17.83;;;16.60;82.20;;;;;;5123820;27;20455;-73
2021/11/01 01:47:57;;;;;;;19.10;18.10;;;16.60;82.40;;;;;;5126544;27;20536;-72
2021/11/01 01:50:23;;;;;;;19.00;18.00;;;16.60;82.40;;;;;;5123165;27;20980;-74
2021/11/01 01:52:52;;;;;;;18.70;17.80;;;16.70;82.50;;;;;;5127165;27;20482;-72
2021/11/01 01:55:20;;;;;;;18.70;17.80;;;16.60;83.10;;;;;;5127601;27;20451;-72
2021/11/01 01:57:48;;;;;;;20.70;19.60;;;16.50;83.60;;;;;;5125785;27;20526;-70
2021/11/01 02:00:26;;;;;;;20.40;19.20;;;16.40;82.10;;;;;;5134935;27;20459;-71
2021/11/01 02:02:55;;;;;;;18.73;17.83;;;16.20;82.30;;;;;;5122532;28;20563;-71
2021/11/01 02:05:23;;;;;;;19.13;18.17;;;15.80;83.50;;;;;;5132335;27;20542;-72
2021/11/01 02:07:53;;;;;;;19.90;18.83;;;15.50;84.30;;;;;;5128231;28;20459;-73
2021/11/01 02:10:27;;;;;;;19.80;18.70;;;15.20;84.40;;;;;;5130232;27;20957;-73
2021/11/01 02:12:59;;;;;;;18.97;18.07;;;15.10;83.20;;;;;;5127246;28;20544;-73
2021/11/01 02:15:29;;;;;;;19.10;18.10;;;15.00;83.80;;;;;;5122503;28;20451;-73
2021/11/01 02:17:58;;;;;;;19.70;18.60;;;15.00;81.50;;;;;;5128213;28;20451;-74
2021/11/01 02:20:37;;;;;;;20.30;18.97;;;14.90;80.20;;;;;;5122921;27;20547;-73
2021/11/01 02:23:12;;;;;;;20.30;19.20;;;14.80;79.60;;;;;;5117310;27;20968;-73
2021/11/01 02:25:48;;;;;;;20.13;18.93;;;14.40;79.50;;;;;;5124817;27;20513;-73
2021/11/01 02:28:17;;;;;;;20.83;19.37;;;14.40;80.20;;;;;;5121859;27;20455;-72
2021/11/01 02:30:45;;;;;;;19.90;18.90;;;14.50;79.80;;;;;;5130036;27;20473;-73
2021/11/01 02:33:13;;;;;;;20.50;19.40;;;14.40;79.30;;;;;;5127482;28;20487;-72
2021/11/01 02:35:42;;;;;;;20.83;19.80;;;14.40;80.10;;;;;;5127343;27;20463;-73
2021/11/01 02:38:12;;;;;;;20.97;19.77;;;14.30;79.50;;;;;;5127992;28;20459;-73
2021/11/01 02:40:40;;;;;;;20.50;19.20;;;14.20;80.30;;;;;;5128780;27;20463;-73
2021/11/01 02:43:08;;;;;;;20.47;19.30;;;14.30;81.10;;;;;;5127218;28;20471;-72
2021/11/01 02:45:36;;;;;;;20.47;19.27;;;14.30;81.20;;;;;;5124235;28;20829;-72
2021/11/01 02:48:03;;;;;;;20.30;19.10;;;14.20;80.50;;;;;;5127371;28;20466;-73
2021/11/01 02:50:30;;;;;;;20.10;19.00;;;14.00;81.30;;;;;;5131523;27;20457;-74
2021/11/01 02:52:56;;;;;;;20.77;19.63;;;14.00;81.30;;;;;;5121698;27;20509;-72
2021/11/01 02:55:23;;;;;;;21.43;20.23;;;13.90;80.60;;;;;;5133212;27;21030;-73
2021/11/01 02:57:52;;;;;;;21.03;19.90;;;13.90;79.90;;;;;;5127503;27;20539;-74
2021/11/01 03:00:23;;;;;;;21.50;20.40;;;13.80;80.60;;;;;;5130274;27;20490;-72
2021/11/01 03:02:51;;;;;;;21.13;20.03;;;13.80;80.80;;;;;;5130005;27;20467;-73
2021/11/01 03:05:20;;;;;;;21.80;20.50;;;13.60;80.80;;;;;;5124990;27;20497;-72
2021/11/01 03:07:49;;;;;;;21.87;20.67;;;13.40;81.50;;;;;;5130704;27;20450;-72
2021/11/01 03:10:17;;;;;;;21.57;20.37;;;13.40;82.00;;;;;;5130528;27;20539;-72
2021/11/01 03:12:47;;;;;;;21.30;19.80;;;13.40;82.10;;;;;;5128278;27;20490;-73
2021/11/01 03:15:21;;;;;;;20.20;19.10;;;13.40;82.50;;;;;;5130902;27;20468;-73
2021/11/01 03:17:50;;;;;;;21.27;19.90;;;13.40;82.50;;;;;;5130379;27;20470;-72
2021/11/01 03:20:20;;;;;;;20.77;19.67;;;13.40;82.10;;;;;;5130303;27;20443;-73
2021/11/01 03:22:51;;;;;;;20.30;19.00;;;13.40;82.20;;;;;;5130639;27;20482;-72
2021/11/01 03:25:26;;;;;;;20.73;19.73;;;13.40;82.70;;;;;;5125576;27;20526;-73
2021/11/01 03:27:56;;;;;;;20.30;19.20;;;13.20;83.00;;;;;;5129099;27;20447;-72
2021/11/01 03:30:25;;;;;;;21.30;20.00;;;13.10;83.80;;;;;;5137420;27;20452;-72
2021/11/01 03:32:53;;;;;;;19.70;18.70;;;13.10;84.20;;;;;;5126998;27;21014;-72
2021/11/01 03:35:21;;;;;;;20.90;19.70;;;13.10;84.60;;;;;;5118458;27;20456;-72
2021/11/01 03:37:52;;;;;;;20.87;19.77;;;13.00;85.20;;;;;;5123981;27;20451;-73
2021/11/01 03:40:20;;;;;;;19.53;18.53;;;13.20;85.30;;;;;;5131764;27;20964;-72
2021/11/01 03:42:48;;;;;;;19.53;18.40;;;13.10;85.20;;;;;;5126698;27;20478;-72
2021/11/01 03:45:17;;;;;;;19.77;18.70;;;13.10;85.50;;;;;;5129645;27;20559;-72
2021/11/01 03:47:47;;;;;;;20.30;18.90;;;12.90;86.00;;;;;;5131021;27;20620;-72
2021/11/01 03:50:26;;;;;;;20.20;19.10;;;12.90;86.40;;;;;;5129336;27;20657;-72
2021/11/01 03:52:54;;;;;;;20.20;18.80;;;12.80;86.90;;;;;;5130502;27;21035;-72
2021/11/01 03:55:23;;;;;;;20.23;19.23;;;12.70;87.60;;;;;;5131002;27;20455;-73
2021/11/01 03:57:51;;;;;;;20.10;19.00;;;12.70;87.70;;;;;;5124156;27;20455;-73
2021/11/01 04:00:18;;;;;;;20.33;19.00;;;12.60;88.20;;;;;;5128671;27;20454;-72
2021/11/01 04:02:47;;;;;;;19.83;18.83;;;12.70;88.10;;;;;;5130214;27;20475;-71
2021/11/01 04:05:14;;;;;;;20.50;19.40;;;12.70;88.30;;;;;;5128983;27;20483;-71
2021/11/01 04:07:43;;;;;;;19.77;18.67;;;12.80;87.90;;;;;;5123790;27;20539;-71
2021/11/01 04:10:10;;;;;;;19.47;18.37;;;12.70;87.90;;;;;;5117264;27;20456;-71
2021/11/01 04:12:38;;;;;;;19.17;18.17;;;12.80;88.10;;;;;;5129753;27;20565;-71
2021/11/01 04:15:07;;;;;;;20.00;18.90;;;12.70;88.60;;;;;;5129549;27;20551;-71
2021/11/01 04:17:40;;;;;;;20.47;19.13;;;12.70;88.80;;;;;;5130544;27;20447;-71
2021/11/01 04:20:24;;;;;;;20.37;18.90;;;12.70;89.10;;;;;;5123447;27;20878;-71
2021/11/01 04:22:57;;;;;;;19.40;18.40;;;12.70;89.20;;;;;;5126827;27;20475;-71
2021/11/01 04:25:25;;;;;;;19.90;18.70;;;12.70;89.70;;;;;;5123570;27;20474;-71
2021/11/01 04:27:53;;;;;;;20.00;18.90;;;12.70;90.10;;;;;;5129592;27;20454;-71
2021/11/01 04:30:20;;;;;;;19.63;18.40;;;12.70;90.30;;;;;;5129216;27;20467;-70
2021/11/01 04:32:51;;;;;;;20.53;19.33;;;12.70;90.30;;;;;;5128702;27;20543;-71
2021/11/01 04:35:22;;;;;;;20.40;19.10;;;12.70;90.40;;;;;;5129159;27;20447;-70
2021/11/01 04:37:54;;;;;;;19.57;18.47;;;12.60;90.70;;;;;;5129595;27;20805;-71
2021/11/01 04:40:32;;;;;;;20.00;18.90;;;12.70;90.60;;;;;;5127443;27;20977;-71
2021/11/01 04:54:09;;;;;;;20.70;19.30;;;12.50;90.60;;;;;;5128335;27;20450;-71
2021/11/01 04:56:37;;;;;;;19.60;18.40;;;12.60;90.10;;;;;;5128840;27;20567;-71
2021/11/01 04:59:05;;;;;;;19.97;18.83;;;12.50;90.10;;;;;;5128393;27;20900;-71
2021/11/01 05:01:35;;;;;;;18.90;17.90;;;12.40;90.30;;;;;;5127386;27;20493;-70
2021/11/01 05:04:06;;;;;;;18.70;17.70;;;12.40;90.80;;;;;;5120598;27;20607;-71
2021/11/01 05:06:35;;;;;;;19.67;18.30;;;12.40;91.00;;;;;;5129506;27;20457;-71
2021/11/01 05:09:06;;;;;;;20.13;18.67;;;12.40;91.00;;;;;;5123836;27;20560;-71
2021/11/01 05:11:37;;;;;;;19.93;18.77;;;12.50;90.70;;;;;;5129209;27;20554;-71
2021/11/01 05:14:05;;;;;;;19.80;18.50;;;12.40;90.80;;;;;;5127390;27;20467;-71
2021/11/01 05:16:47;;;;;;;20.00;18.90;;;12.30;91.20;;;;;;5128429;27;20478;-71
2021/11/01 05:19:21;;;;;;;19.90;18.80;;;12.30;91.20;;;;;;5130517;27;20454;-71
2021/11/01 05:21:59;;;;;;;19.40;18.30;;;12.30;91.30;;;;;;5129427;27;20524;-71
2021/11/01 05:24:31;;;;;;;19.23;18.20;;;12.40;91.30;;;;;;5122247;27;20995;-70
2021/11/01 05:27:21;;;;;;;20.10;19.10;;;12.40;91.20;;;;;;5128616;27;20456;-71
2021/11/01 05:29:50;;;;;;;19.63;18.53;;;12.30;91.40;;;;;;5126587;27;20534;-71
2021/11/01 05:32:20;;;;;;;20.33;19.03;;;12.30;91.70;;;;;;5126026;27;21002;-71
2021/11/01 05:34:46;;;;;;;19.03;18.00;;;12.30;91.40;;;;;;5133033;27;20438;-71
2021/11/01 05:37:15;;;;;;;19.03;17.93;;;12.30;92.00;;;;;;5126390;27;20973;-71
2021/11/01 05:39:42;;;;;;;18.67;17.50;;;12.30;92.20;;;;;;5133962;27;20462;-72
2021/11/01 05:42:09;;;;;;;19.00;17.57;;;12.30;92.50;;;;;;5129682;27;20474;-71
2021/11/01 05:44:36;;;;;;;18.50;17.40;;;12.20;92.80;;;;;;5126727;27;20483;-71
2021/11/01 05:47:05;;;;;;;19.53;18.33;;;12.20;93.00;;;;;;5125764;27;20452;-71
2021/11/01 05:49:36;;;;;;;20.30;18.77;;;12.30;93.20;;;;;;5122131;27;20457;-71
2021/11/01 05:52:04;;;;;;;19.87;18.77;;;12.20;93.20;;;;;;5118324;27;20477;-71
2021/11/01 05:54:33;;;;;;;18.73;17.50;;;12.20;93.50;;;;;;5128243;27;20467;-71
2021/11/01 05:57:08;;;;;;;19.10;17.90;;;12.20;93.60;;;;;;5128260;27;20902;-71
2021/11/01 06:02:34;;;;;;;20.47;18.90;;;12.10;93.90;;;;;;5106620;28;21076;-72
2021/11/01 06:05:11;;;;;;;18.07;17.07;;;12.10;94.20;;;;;;5130268;27;20471;-73
2021/11/01 06:07:45;;;;;;;18.63;17.50;;;12.10;94.00;;;;;;5126397;28;20546;-73
2021/11/01 06:10:24;;;;;;;18.40;17.30;;;12.10;94.30;;;;;;5120379;27;20976;-73
2021/11/01 06:15:36;;;;;;;18.83;17.73;;;12.10;94.50;;;;;;5127170;28;20516;-73
2021/11/01 06:18:03;;;;;;;18.20;17.27;;;12.10;94.30;;;;;;5128479;28;20474;-73
2021/11/01 06:20:30;;;;;;;17.60;16.70;;;12.20;94.10;;;;;;5126847;28;20457;-73
2021/11/01 06:22:57;;;;;;;18.03;17.00;;;12.20;93.70;;;;;;5127494;28;20491;-73
2021/11/01 06:25:25;;;;;;;17.70;16.70;;;12.10;93.40;;;;;;5128648;27;20482;-73
2021/11/01 06:27:54;;;;;;;18.60;17.60;;;12.10;93.70;;;;;;5124100;28;20460;-73
2021/11/01 06:30:26;;;;;;;18.33;17.23;;;12.10;93.80;;;;;;5127552;27;20530;-73
2021/11/01 06:33:11;;;;;;;17.80;16.90;;;12.10;93.70;;;;;;5125926;27;20944;-73
2021/11/01 06:44:24;;;;;;;20.00;18.80;;;12.10;91.40;;;;;;5121757;27;20454;-71
2021/11/01 06:49:49;;;;;;;18.00;17.10;;;12.10;91.10;;;;;;5125306;27;20999;-72
2021/11/01 06:52:44;;;;;;;18.00;17.00;;;12.00;90.40;;;;;;5130284;27;20441;-71
2021/11/01 06:58:26;;;;;;;17.80;17.00;;;12.10;89.40;;;;;;5095160;27;20539;-70
2021/11/01 07:14:50;;;;;;;18.23;17.23;;;12.10;87.30;;;;;;5129627;27;20568;-71
2021/11/01 07:17:24;;;;;;;20.20;19.00;;;12.00;87.80;;;;;;5119158;27;20465;-71
2021/11/01 07:20:10;;;;;;;18.00;17.10;;;12.00;87.30;;;;;;5127384;27;20479;-73
2021/11/01 08:20:47;;;;;;;19.23;18.23;;;11.80;89.50;;;;;;5125219;27;20492;-70
2021/11/01 08:26:26;;;;;;;22.57;21.47;;;11.70;89.90;;;;;;5095438;27;20527;-70
2021/11/01 08:29:02;;;;;;;19.33;18.30;;;11.80;89.70;;;;;;5128949;27;20443;-70
2021/11/01 08:34:52;;;;;;;17.93;17.13;;;11.90;89.10;;;;;;5128052;27;20446;-70
2021/11/01 08:37:34;;;;;;;19.00;18.00;;;11.90;88.80;;;;;;5125948;27;20443;-70
2021/11/01 08:40:10;;;;;;;18.00;17.10;;;11.90;89.00;;;;;;5129866;27;20447;-71
2021/11/01 08:42:51;;;;;;;18.30;17.40;;;11.90;89.00;;;;;;5129042;27;20467;-70
2021/11/01 09:05:10;;;;;;;17.40;16.50;;;12.10;88.00;;;;;;5117241;27;20451;-70
2021/11/01 09:08:00;;;;;;;17.83;16.63;;;12.30;87.80;;;;;;5130129;27;20461;-71
2021/11/01 09:18:54;;;;;;;20.73;19.63;;;12.40;86.50;;;;;;5130156;27;20959;-73
2021/11/01 09:21:37;;;;;;;19.40;18.20;;;12.40;86.80;;;;;;5118666;27;20505;-72
2021/11/01 09:26:50;;;;;;;19.10;18.10;;;12.40;86.90;;;;;;5113037;27;20826;-72
2021/11/01 09:29:25;;;;;;;19.57;18.60;;;12.50;86.90;;;;;;5126220;27;20561;-72
2021/11/01 09:37:52;;;;;;;18.20;17.40;;;12.50;86.90;;;;;;5140070;27;20467;-72
2021/11/01 09:43:06;;;;;;;18.50;17.60;;;12.90;85.70;;;;;;5128052;27;20532;-72
2021/11/01 09:45:37;;;;;;;18.47;17.47;;;12.80;86.00;;;;;;5128224;27;20488;-73
2021/11/01 09:48:05;;;;;;;19.83;18.83;;;12.90;86.10;;;;;;5120871;27;20438;-73
2021/11/01 09:50:32;;;;;;;19.23;18.13;;;13.00;85.80;;;;;;5128016;27;20976;-72
2021/11/01 09:53:02;;;;;;;20.67;19.67;;;13.10;85.00;;;;;;5128331;27;20502;-71
2021/11/01 09:55:47;;;;;;;18.80;17.70;;;13.00;84.80;;;;;;5131034;27;20482;-72
2021/11/01 10:01:02;;;;;;;20.67;19.20;;;13.00;85.40;;;;;;5122535;27;21213;-72
2021/11/01 10:03:33;;;;;;;19.83;18.73;;;13.20;84.60;;;;;;5123442;28;20652;-71
2021/11/01 10:06:01;;;;;;;19.90;18.90;;;13.20;84.50;;;;;;5130434;27;20482;-71
2021/11/01 10:08:29;;;;;;;19.33;18.33;;;13.30;84.50;;;;;;5128381;27;20459;-71
2021/11/01 10:10:57;;;;;;;21.13;19.73;;;13.30;84.00;;;;;;5129103;27;20880;-74
2021/11/01 10:13:28;;;;;;;19.63;18.63;;;13.30;83.80;;;;;;5130531;27;20489;-73
2021/11/01 10:18:44;;;;;;;19.30;18.40;;;13.00;84.90;;;;;;5127198;27;21227;-74
2021/11/01 10:21:11;;;;;;;19.53;18.40;;;13.10;84.00;;;;;;5130689;27;20451;-73
2021/11/01 10:23:49;;;;;;;19.43;18.43;;;13.10;83.10;;;;;;5133741;27;20466;-72
2021/11/01 10:26:19;;;;;;;19.10;18.20;;;13.10;83.80;;;;;;5139985;27;20523;-72
2021/11/01 10:28:48;;;;;;;20.67;19.60;;;13.10;84.20;;;;;;5124799;27;20956;-72
2021/11/01 10:31:20;;;;;;;19.40;18.40;;;13.10;83.70;;;;;;5132160;27;20551;-72
2021/11/01 10:33:48;;;;;;;20.00;18.90;;;13.10;82.80;;;;;;5129311;27;20494;-72
2021/11/01 10:36:26;;;;;;;20.37;19.37;;;13.10;82.40;;;;;;5133383;27;20451;-73
2021/11/01 10:38:58;;;;;;;21.20;20.13;;;13.10;82.10;;;;;;5119062;27;21090;-73
2021/11/01 10:41:34;;;;;;;19.70;18.70;;;12.90;83.20;;;;;;5123361;27;20448;-72
2021/11/01 10:44:13;;;;;;;20.33;19.23;;;13.00;83.40;;;;;;5123268;27;20470;-72
2021/11/01 11:11:52;;;;;;;20.40;19.40;;;13.20;83.20;;;;;;5131999;27;20876;-74
2021/11/01 11:14:25;;;;;;;21.07;19.97;;;13.30;83.00;;;;;;5130562;27;20470;-75
2021/11/01 11:17:16;;;;;;;19.30;18.40;;;13.40;82.80;;;;;;5127412;27;20447;-74
2021/11/01 11:19:58;;;;;;;22.40;21.30;;;13.40;82.80;;;;;;5136667;27;20450;-73
2021/11/01 11:22:35;;;;;;;20.13;19.03;;;13.30;82.10;;;;;;5134188;27;20471;-73
2021/11/01 11:25:14;;;;;;;19.80;18.70;;;13.20;82.20;;;;;;5144370;27;21019;-74
2021/11/01 11:28:02;;;;;;;20.53;19.43;;;13.40;82.20;;;;;;5130188;27;20216;-75
2021/11/01 11:33:30;;;;;;;22.17;21.07;;;13.50;81.50;;;;;;5127364;27;20463;-74
2021/11/01 11:39:16;;;;;;;20.60;19.50;;;13.70;80.60;;;;;;5129703;27;20442;-75
2021/11/01 11:47:25;;;;;;;22.70;21.40;;;13.70;80.50;;;;;;5132018;27;20527;-74
2021/11/01 11:49:55;;;;;;;22.77;21.50;;;13.70;80.30;;;;;;5130335;27;20488;-75
2021/11/01 11:52:24;;;;;;;23.93;22.63;;;13.60;81.20;;;;;;5120947;27;20478;-74
2021/11/01 11:54:54;;;;;;;21.53;20.33;;;13.70;80.60;;;;;;5128425;27;20559;-72
2021/11/01 11:57:23;;;;;;;20.67;19.57;;;13.70;80.80;;;;;;5129435;27;20465;-75
2021/11/01 11:59:53;;;;;;;21.60;20.40;;;13.60;81.40;;;;;;5138451;27;20538;-76
2021/11/01 12:02:32;;;;;;;22.77;21.57;;;13.70;80.90;;;;;;5135756;27;20478;-71
2021/11/01 12:05:11;;;;;;;22.47;21.13;;;13.60;80.90;;;;;;5126209;27;20470;-72
2021/11/01 12:07:49;;;;;;;22.43;21.23;;;13.50;80.90;;;;;;5122729;27;20562;-72
2021/11/01 12:10:40;;;;;;;23.17;21.87;;;13.60;81.20;;;;;;5128954;27;20466;-72
2021/11/01 12:13:13;;;;;;;22.23;20.43;;;13.40;82.10;;;;;;5130239;27;20489;-72
2021/11/01 12:18:35;;;;;;;23.30;21.90;;;13.40;81.80;;;;;;5131267;27;20476;-72
2021/11/01 12:21:03;;;;;;;23.27;22.07;;;13.50;81.30;;;;;;5128975;27;20459;-72
2021/11/01 12:23:38;;;;;;;23.77;22.47;;;13.50;81.00;;;;;;5127812;27;20469;-73
2021/11/01 12:26:10;;;;;;;23.13;21.93;;;13.70;80.30;;;;;;5143380;27;20822;-72
2021/11/01 12:28:38;;;;;;;21.17;20.07;;;13.70;80.00;;;;;;5129024;27;20463;-72
2021/11/01 12:31:06;;;;;;;22.17;21.00;;;13.60;80.70;;;;;;5129523;27;20447;-73
2021/11/01 12:33:39;;;;;;;21.90;20.70;;;13.60;80.40;;;;;;5129019;27;20565;-73
2021/11/01 12:36:09;;;;;;;21.30;20.17;;;13.60;80.70;;;;;;5143480;27;20482;-73
2021/11/01 12:38:42;;;;;;;22.30;21.20;;;13.60;80.70;;;;;;5130648;27;21203;-77
2021/11/01 12:41:28;;;;;;;21.40;20.30;;;13.50;80.80;;;;;;5132051;27;20504;-73
2021/11/01 12:49:49;;;;;;;23.70;22.40;;;13.30;82.10;;;;;;5105573;27;21084;-72
2021/11/01 12:57:47;;;;;;;22.90;21.60;;;13.60;81.40;;;;;;5129821;27;20453;-74
2021/11/01 13:00:15;;;;;;;22.87;21.67;;;13.60;81.60;;;;;;5135191;27;20490;-74
2021/11/01 13:02:44;;;;;;;24.40;23.07;;;13.60;81.90;;;;;;5130806;27;20479;-71
2021/11/01 13:05:18;;;;;;;25.50;23.90;;;13.50;82.50;;;;;;5132684;27;20878;-72
2021/11/01 13:07:53;;;;;;;24.10;22.70;;;13.40;83.50;;;;;;5127632;27;20479;-75
2021/11/01 13:10:24;;;;;;;23.47;22.17;;;13.50;83.20;;;;;;5133693;27;20529;-74
2021/11/01 13:18:24;;;;;;;23.23;21.93;;;13.60;82.20;;;;;;5139745;27;20454;-73
2021/11/01 13:20:57;;;;;;;24.50;23.10;;;13.60;84.30;;;;;;5126449;27;20809;-73
2021/11/01 13:23:28;;;;;;;22.87;21.50;;;13.70;85.70;;;;;;5125178;27;20980;-73
2021/11/01 13:26:04;;;;;;;23.73;22.40;;;13.60;87.60;;;;;;5128576;27;20880;-73
2021/11/01 13:37:09;;;;;;;23.50;22.10;;;13.70;86.60;;;;;;5128131;27;20968;-72
2021/11/01 13:39:38;;;;;;;24.90;23.40;;;13.80;84.10;;;;;;5125481;27;20566;-73
2021/11/01 13:42:13;;;;;;;24.07;22.63;;;13.80;81.40;;;;;;5126897;27;20481;-72
2021/11/01 13:44:40;;;;;;;25.40;23.90;;;13.90;79.60;;;;;;5125879;27;20477;-74
2021/11/01 13:47:10;;;;;;;26.43;24.93;;;13.90;79.70;;;;;;5127867;27;20567;-75
2021/11/01 13:49:38;;;;;;;26.03;24.43;;;13.80;79.60;;;;;;5130416;27;20462;-74
2021/11/01 13:52:34;;;;;;;24.03;22.63;;;13.70;80.20;;;;;;5127545;27;20478;-74
2021/11/01 13:55:06;;;;;;;24.80;23.60;;;13.80;80.30;;;;;;5125473;27;20448;-75
2021/11/01 13:57:40;;;;;;;24.20;22.80;;;13.70;80.80;;;;;;5126431;27;20447;-74
2021/11/01 14:00:33;;;;;;;26.97;25.00;;;13.70;80.40;;;;;;5126377;27;20443;-74
2021/11/01 14:03:07;;;;;;;23.33;22.03;;;13.80;81.70;;;;;;5125226;27;20471;-76
2021/11/01 14:14:18;;;;;;;23.90;22.50;;;13.90;79.50;;;;;;5122031;27;20474;-73
2021/11/01 14:16:52;;;;;;;23.23;21.83;;;13.90;79.00;;;;;;5122473;28;20447;-72
2021/11/01 14:36:41;;;;;;;23.23;21.93;;;14.00;79.40;;;;;;5037537;28;20446;-74
2021/11/01 15:15:17;;;;;;;23.80;22.50;;;13.70;78.40;;;;;;5131265;27;20453;-73
2021/11/01 15:17:53;;;;;;;24.70;23.20;;;13.80;77.70;;;;;;5125238;27;20448;-73
2021/11/01 15:20:35;;;;;;;25.10;23.70;;;13.70;78.20;;;;;;5128053;27;20495;-73
2021/11/01 15:23:10;;;;;;;25.43;23.83;;;13.70;77.50;;;;;;5119211;27;20539;-74
2021/11/01 15:34:19;;;;;;;24.20;22.80;;;13.80;78.00;;;;;;5131192;27;20478;-74
2021/11/01 16:18:31;;;;;;;25.10;23.27;;;12.80;84.30;;;;;;5110276;27;20461;-75
2021/11/01 16:20:59;;;;;;;23.33;22.10;;;12.70;84.90;;;;;;5122427;27;20472;-73
2021/11/01 16:23:36;;;;;;;22.10;20.90;;;12.70;84.20;;;;;;5128179;27;20475;-75
2021/11/01 16:26:16;;;;;;;21.80;20.40;;;12.60;84.60;;;;;;5127571;27;20475;-75
2021/11/01 16:28:43;;;;;;;22.37;21.17;;;12.50;84.80;;;;;;5128576;27;20992;-76
2021/11/01 16:33:59;;;;;;;23.07;21.97;;;12.50;85.10;;;;;;5123644;27;20451;-75
2021/11/01 16:39:25;;;;;;;22.43;21.13;;;12.40;86.80;;;;;;5095748;27;20482;-75
2021/11/01 16:41:53;;;;;;;22.20;20.90;;;12.30;87.00;;;;;;5123180;27;20478;-74
2021/11/01 16:44:24;;;;;;;20.83;19.73;;;12.30;86.50;;;;;;5123549;27;22331;-75
2021/11/01 16:46:51;;;;;;;22.93;21.40;;;12.30;86.80;;;;;;5128779;27;20486;-79
2021/11/01 16:49:20;;;;;;;23.73;22.30;;;12.30;86.90;;;;;;5131058;27;20459;-75
2021/11/01 16:51:48;;;;;;;22.03;20.90;;;12.30;86.80;;;;;;5127678;27;20528;-76
2021/11/01 16:54:18;;;;;;;22.77;21.57;;;12.20;86.60;;;;;;5123870;27;20455;-76
2021/11/01 16:56:57;;;;;;;20.60;19.50;;;12.20;87.50;;;;;;5126523;27;20538;-77
2021/11/01 16:59:35;;;;;;;22.67;21.47;;;12.20;89.40;;;;;;5123105;27;20459;-75
2021/11/01 17:02:18;;;;;;;21.83;20.50;;;12.20;88.80;;;;;;5126663;27;20491;-77
2021/11/01 17:04:49;;;;;;;22.20;21.07;;;12.20;88.60;;;;;;5121343;27;20459;-76
2021/11/01 17:07:24;;;;;;;20.90;19.70;;;12.10;87.80;;;;;;5128083;27;20472;-76
2021/11/01 17:10:16;;;;;;;20.90;19.90;;;12.00;88.00;;;;;;5123620;27;20450;-76
2021/11/01 17:21:35;;;;;;;22.37;21.07;;;12.00;88.70;;;;;;5127937;27;20480;-75
2021/11/01 17:24:16;;;;;;;21.63;20.33;;;11.90;88.30;;;;;;5116910;27;20516;-75
2021/11/01 17:27:06;;;;;;;23.50;22.10;;;11.80;88.60;;;;;;5126160;27;20478;-75
2021/11/01 17:30:05;;;;;;;22.50;21.27;;;11.70;88.80;;;;;;5131550;27;20542;-73
2021/11/01 17:38:44;;;;;;;21.43;20.10;;;11.70;90.00;;;;;;5124090;27;20801;-73
2021/11/01 18:39:43;;;;;;;21.67;20.37;;;10.80;93.50;;;;;;5125445;27;21023;-74
2021/11/01 18:42:25;;;;;;;19.67;18.37;;;10.70;92.80;;;;;;5133648;27;20540;-74
2021/11/01 18:45:04;;;;;;;21.83;20.27;;;10.70;91.70;;;;;;5136918;27;20486;-75
2021/11/01 18:53:11;;;;;;;22.20;20.70;;;10.90;90.90;;;;;;5115234;27;20459;-74
2021/11/01 18:55:38;;;;;;;22.20;20.57;;;10.80;91.10;;;;;;5131730;27;20460;-73
2021/11/01 18:58:07;;;;;;;20.77;19.20;;;10.70;90.80;;;;;;5129700;27;20450;-73
2021/11/01 19:00:40;;;;;;;22.23;20.83;;;10.60;91.00;;;;;;5135150;27;20535;-73
2021/11/01 19:03:08;;;;;;;20.60;19.50;;;10.60;91.00;;;;;;5128070;27;20471;-73
2021/11/01 19:05:41;;;;;;;20.37;19.27;;;10.60;90.50;;;;;;5135667;27;20461;-73
2021/11/01 19:08:19;;;;;;;22.37;20.87;;;10.50;91.00;;;;;;5130359;27;20479;-73
2021/11/01 20:04:28;;;;;;;22.03;20.73;;;9.40;92.00;;;;;;5101522;28;20243;-73
2021/11/01 20:07:22;;;;;;;21.10;19.80;;;9.40;91.20;;;;;;5106425;28;20506;-72
2021/11/01 20:12:51;;;;;;;20.48;19.23;;;9.30;91.00;;;;;;5099390;28;20665;-73
2021/11/01 20:15:44;;;;;;;20.52;19.35;;;9.30;91.00;;;;;;5096770;28;20292;-73
2021/11/01 21:25:19;;;;;;;19.25;18.20;;;8.50;93.50;;;;;;5083575;28;20210;-75
2021/11/01 21:27:48;;;;;;;19.30;18.27;;;8.50;93.10;;;;;;5087323;28;20204;-75
2021/11/01 21:30:15;;;;;;;19.75;18.75;;;8.40;93.60;;;;;;5086817;28;20195;-74
2021/11/01 21:32:42;;;;;;;18.52;17.55;;;8.40;94.30;;;;;;5088240;28;20709;-74
2021/11/01 21:35:13;;;;;;;18.70;17.60;;;8.40;94.20;;;;;;5087860;28;20286;-74
2021/11/01 21:37:41;;;;;;;19.25;18.08;;;8.30;93.90;;;;;;5088068;28;20187;-74
2021/11/01 21:40:10;;;;;;;19.77;18.58;;;8.30;93.90;;;;;;5089122;28;20229;-75
2021/11/01 21:42:37;;;;;;;18.33;17.27;;;8.30;93.90;;;;;;5086771;28;20256;-75
2021/11/01 21:45:07;;;;;;;19.02;18.02;;;8.20;93.90;;;;;;5088353;27;20242;-75
2021/11/01 21:47:35;;;;;;;19.15;18.08;;;8.20;93.90;;;;;;5089651;28;20282;-75
2021/11/01 21:50:06;;;;;;;19.70;18.60;;;8.20;94.30;;;;;;5085302;28;20286;-74
2021/11/01 21:52:35;;;;;;;19.30;18.30;;;8.20;94.50;;;;;;5088153;28;20226;-73